Time;durP1;ratioP1;P1;durP2;ratioP2;P2;SDS_P1;SDS_P2;PMS_P1;PMS_P2;Temp;Humidity;BMP_temperature;BMP_pressure;BME280_temperature;BME280_humidity;BME280_pressure;Samples;Min_cycle;Max_cycle;Signal;HPM_P1;HPM_P2
2022/03/21 00:01:10;;;;;;;8.80;5.07;;;12.60;35.40;;;;;;2342068;54;21182;-65
2022/03/21 00:03:37;;;;;;;9.35;5.03;;;12.50;35.30;;;;;;2300480;54;21602;-64
2022/03/21 00:06:37;;;;;;;9.43;5.05;;;12.50;35.40;;;;;;2317467;53;20985;-65
2022/03/21 00:09:07;;;;;;;10.77;5.47;;;12.50;35.60;;;;;;2288300;55;20942;-64
2022/03/21 00:11:55;;;;;;;8.85;5.45;;;12.50;35.50;;;;;;2307895;54;21002;-67
2022/03/21 00:14:34;;;;;;;10.85;5.55;;;12.50;35.50;;;;;;2293206;55;21029;-65
2022/03/21 00:17:01;;;;;;;7.62;4.45;;;12.50;35.60;;;;;;2295334;55;21388;-65
2022/03/21 00:19:28;;;;;;;7.85;4.60;;;12.50;35.60;;;;;;2288347;55;21037;-65
2022/03/21 00:22:05;;;;;;;9.98;5.47;;;12.50;35.60;;;;;;2277455;55;21030;-65
2022/03/21 00:24:35;;;;;;;10.05;5.47;;;12.50;35.70;;;;;;2306875;54;21022;-65
2022/03/21 00:27:04;;;;;;;8.48;4.93;;;12.50;35.60;;;;;;2277289;55;20951;-65
2022/03/21 00:30:05;;;;;;;9.60;5.50;;;12.50;35.60;;;;;;2296006;55;21661;-65
2022/03/21 00:32:31;;;;;;;9.55;5.20;;;12.50;35.70;;;;;;2288773;55;20997;-64
2022/03/21 00:35:04;;;;;;;8.80;4.72;;;12.40;36.20;;;;;;2305554;56;21430;-63
2022/03/21 00:37:58;;;;;;;8.35;4.78;;;12.40;35.50;;;;;;2304554;55;21029;-63
2022/03/21 00:46:16;;;;;;;7.12;4.30;;;12.30;35.70;;;;;;2304462;57;21121;-64
2022/03/21 00:48:52;;;;;;;7.53;3.53;;;12.20;35.50;;;;;;2303357;57;21089;-65
2022/03/21 00:51:25;;;;;;;7.55;4.57;;;12.10;35.20;;;;;;2304339;57;21612;-65
2022/03/21 00:53:54;;;;;;;7.53;4.62;;;12.00;35.30;;;;;;2344469;54;21133;-65
2022/03/21 00:56:22;;;;;;;8.00;4.40;;;11.90;35.50;;;;;;2320263;54;21060;-66
2022/03/21 00:59:11;;;;;;;7.15;4.25;;;11.90;35.70;;;;;;2295065;58;21056;-65
2022/03/21 01:01:38;;;;;;;8.68;5.37;;;11.80;35.80;;;;;;2304058;58;21096;-65
2022/03/21 01:04:19;;;;;;;7.82;5.25;;;11.80;35.90;;;;;;2304514;58;21069;-66
2022/03/21 01:06:48;;;;;;;9.82;5.35;;;11.80;35.90;;;;;;2304212;58;21148;-64
2022/03/21 01:09:17;;;;;;;9.18;5.22;;;11.80;36.10;;;;;;2304237;58;21081;-64
2022/03/21 01:11:44;;;;;;;10.20;5.28;;;11.80;36.20;;;;;;2304454;58;21144;-63
2022/03/21 01:14:17;;;;;;;9.27;5.80;;;11.80;36.20;;;;;;2303930;58;21072;-65
2022/03/21 01:16:45;;;;;;;8.60;5.12;;;11.80;36.30;;;;;;2328547;54;21148;-64
2022/03/21 01:19:14;;;;;;;8.57;5.32;;;11.80;36.30;;;;;;2303733;57;21254;-66
2022/03/21 01:21:41;;;;;;;9.18;5.03;;;11.80;36.30;;;;;;2325348;54;21151;-65
2022/03/21 01:24:08;;;;;;;9.18;5.03;;;11.80;36.30;;;;;;2304318;58;21077;-64
2022/03/21 01:26:35;;;;;;;9.85;4.78;;;11.70;36.20;;;;;;2360372;54;21077;-65
2022/03/21 01:29:29;;;;;;;7.80;4.68;;;11.70;36.20;;;;;;2304072;58;21471;-66
2022/03/21 01:31:56;;;;;;;6.28;3.58;;;11.60;36.30;;;;;;2405654;53;21081;-65
2022/03/21 01:34:23;;;;;;;9.30;5.00;;;11.60;36.10;;;;;;2303600;58;21077;-64
2022/03/21 01:37:13;;;;;;;;;;;11.50;36.00;;;;;;2340402;54;21009;-65
2022/03/21 01:39:55;;;;;;;6.53;3.92;;;11.50;36.30;;;;;;2303723;58;20083;-64
2022/03/21 01:42:22;;;;;;;8.45;4.05;;;11.40;35.90;;;;;;2303863;58;21128;-66
2022/03/21 01:45:27;;;;;;;7.28;4.60;;;11.30;35.90;;;;;;2305350;57;21116;-65
2022/03/21 01:47:54;;;;;;;7.95;4.60;;;11.20;36.10;;;;;;2303551;57;21073;-65
2022/03/21 01:50:27;;;;;;;6.78;4.18;;;11.10;36.00;;;;;;2304978;57;21069;-65
2022/03/21 01:55:58;;;;;;;8.43;4.70;;;10.90;36.00;;;;;;2306049;57;21132;-65
2022/03/21 01:58:40;;;;;;;8.25;4.78;;;10.80;36.00;;;;;;2305845;58;21121;-65
2022/03/21 02:01:06;;;;;;;7.80;4.10;;;10.80;36.30;;;;;;2317980;54;21129;-63
2022/03/21 02:03:33;;;;;;;7.12;4.50;;;10.70;36.20;;;;;;2305851;58;21140;-66
2022/03/21 02:07:35;;;;;;;6.75;3.80;;;10.60;36.20;;;;;;2306102;57;21629;-63
2022/03/21 02:10:04;;;;;;;7.85;4.70;;;10.50;36.30;;;;;;2314664;54;21097;-63
2022/03/21 02:12:31;;;;;;;8.60;4.57;;;10.40;36.40;;;;;;2305441;58;21081;-63
2022/03/21 02:14:57;;;;;;;8.57;5.07;;;10.30;36.50;;;;;;2305667;57;21211;-64
2022/03/21 02:17:24;;;;;;;8.27;5.03;;;10.30;36.70;;;;;;2305773;58;21705;-64
2022/03/21 02:19:53;;;;;;;7.78;4.90;;;10.20;36.90;;;;;;2306024;57;21121;-63
2022/03/21 02:22:28;;;;;;;7.90;4.53;;;10.20;37.00;;;;;;2357690;54;21053;-63
2022/03/21 02:25:30;;;;;;;7.65;4.53;;;10.20;37.10;;;;;;2305841;58;21129;-66
2022/03/21 02:28:02;;;;;;;8.38;4.80;;;10.10;37.30;;;;;;2305466;57;21061;-63
2022/03/21 02:30:30;;;;;;;7.45;4.12;;;10.10;37.10;;;;;;2305903;57;21069;-64
2022/03/21 02:32:57;;;;;;;7.45;4.43;;;10.00;37.10;;;;;;2303821;58;21704;-63
2022/03/21 02:35:28;;;;;;;8.02;4.62;;;10.00;37.20;;;;;;2304529;57;21080;-64
2022/03/21 02:37:55;;;;;;;8.02;4.70;;;9.90;38.10;;;;;;2306265;57;21065;-63
2022/03/21 02:40:22;;;;;;;8.52;4.53;;;9.80;38.10;;;;;;2304555;58;21081;-64
2022/03/21 02:42:50;;;;;;;7.00;4.35;;;9.70;38.70;;;;;;2305301;58;21073;-65
2022/03/21 02:45:17;;;;;;;10.00;5.37;;;9.70;38.20;;;;;;2303982;58;21085;-65
2022/03/21 02:47:46;;;;;;;9.43;5.22;;;9.70;38.30;;;;;;2305084;58;21542;-64
2022/03/21 02:50:40;;;;;;;11.02;5.15;;;9.60;38.40;;;;;;2305741;58;21045;-65
2022/03/21 02:53:08;;;;;;;10.23;5.12;;;9.50;38.80;;;;;;2305723;58;21101;-64
2022/03/21 02:55:35;;;;;;;7.70;4.37;;;9.40;38.60;;;;;;2305723;58;21069;-63
2022/03/21 02:58:07;;;;;;;7.80;4.43;;;9.40;38.60;;;;;;2378808;54;21112;-64
2022/03/21 03:00:33;;;;;;;7.07;4.30;;;9.30;38.70;;;;;;2373609;53;21072;-64
2022/03/21 03:03:00;;;;;;;8.63;4.62;;;9.30;38.80;;;;;;2306022;58;21112;-65
2022/03/21 03:05:26;;;;;;;7.57;4.47;;;9.20;38.80;;;;;;2323062;54;21140;-64
2022/03/21 03:07:53;;;;;;;8.40;4.72;;;9.20;39.00;;;;;;2306547;58;21076;-64
2022/03/21 03:10:20;;;;;;;8.07;4.32;;;9.10;39.00;;;;;;2306068;58;21569;-65
2022/03/21 03:12:49;;;;;;;9.10;5.00;;;9.10;39.20;;;;;;2306240;58;21075;-65
2022/03/21 03:15:15;;;;;;;8.02;5.05;;;9.00;39.20;;;;;;2307886;54;21065;-65
2022/03/21 03:17:42;;;;;;;7.50;4.72;;;9.00;39.20;;;;;;2306364;58;21081;-62
2022/03/21 03:20:09;;;;;;;7.65;3.83;;;9.00;39.40;;;;;;2304569;58;21065;-66
2022/03/21 03:22:37;;;;;;;7.80;4.45;;;8.90;39.40;;;;;;2304150;58;21088;-62
2022/03/21 03:25:04;;;;;;;9.02;4.12;;;8.90;39.50;;;;;;2304636;58;21203;-62
2022/03/21 03:27:33;;;;;;;7.15;4.22;;;8.90;39.50;;;;;;2303187;58;22111;-65
2022/03/21 03:30:01;;;;;;;7.53;4.50;;;8.90;39.50;;;;;;2304909;54;21152;-65
2022/03/21 03:32:30;;;;;;;8.10;4.45;;;8.80;39.50;;;;;;2303821;58;22205;-63
2022/03/21 03:34:56;;;;;;;7.95;4.43;;;8.80;39.50;;;;;;2304558;58;21065;-64
2022/03/21 03:37:24;;;;;;;6.78;3.58;;;8.70;39.50;;;;;;2308072;54;21077;-64
2022/03/21 03:39:50;;;;;;;7.03;3.75;;;8.70;39.60;;;;;;2357856;54;21113;-64
2022/03/21 03:42:17;;;;;;;7.47;4.53;;;8.60;39.60;;;;;;2304045;57;21076;-65
2022/03/21 03:44:43;;;;;;;7.90;4.53;;;8.60;39.60;;;;;;2304197;58;21073;-63
2022/03/21 03:47:09;;;;;;;6.87;4.12;;;8.60;39.80;;;;;;2304756;58;21626;-63
2022/03/21 03:49:36;;;;;;;9.07;4.32;;;8.60;39.80;;;;;;2303280;58;21085;-63
2022/03/21 03:52:03;;;;;;;8.40;5.07;;;8.60;39.90;;;;;;2304415;58;21557;-64
2022/03/21 03:54:33;;;;;;;8.57;4.50;;;8.50;39.80;;;;;;2303450;58;22114;-64
2022/03/21 03:56:59;;;;;;;7.72;4.57;;;8.50;39.90;;;;;;2308426;54;21088;-62
2022/03/21 03:59:26;;;;;;;8.75;4.50;;;8.50;39.90;;;;;;2303676;57;21136;-64
2022/03/21 04:01:53;;;;;;;7.32;4.43;;;8.40;39.90;;;;;;2304187;58;21577;-65
2022/03/21 04:04:19;;;;;;;7.28;4.30;;;8.40;39.90;;;;;;2304107;58;21085;-66
2022/03/21 04:06:48;;;;;;;6.75;4.07;;;8.30;39.90;;;;;;2304072;57;21141;-62
2022/03/21 04:09:15;;;;;;;8.20;4.03;;;8.30;40.00;;;;;;2360534;54;21581;-65
2022/03/21 04:11:41;;;;;;;7.30;4.28;;;8.20;39.90;;;;;;2303785;58;21140;-63
2022/03/21 04:14:08;;;;;;;9.43;4.87;;;8.20;40.10;;;;;;2366777;53;21088;-63
2022/03/21 04:16:39;;;;;;;9.13;4.55;;;8.20;40.10;;;;;;2303984;57;21140;-65
2022/03/21 04:19:05;;;;;;;8.60;4.82;;;8.10;40.20;;;;;;2304051;58;21721;-65
2022/03/21 04:21:32;;;;;;;7.68;4.72;;;8.10;40.30;;;;;;2310560;54;21623;-65
2022/03/21 04:24:00;;;;;;;7.37;4.10;;;8.00;40.30;;;;;;2330409;54;21680;-64
2022/03/21 04:26:26;;;;;;;7.80;4.37;;;8.00;40.40;;;;;;2303623;58;21069;-63
2022/03/21 04:28:55;;;;;;;8.38;4.43;;;8.00;40.40;;;;;;2304414;58;21080;-63
2022/03/21 04:31:21;;;;;;;7.78;4.37;;;7.90;40.40;;;;;;2341587;54;21132;-66
2022/03/21 04:33:48;;;;;;;7.22;4.43;;;7.90;40.60;;;;;;2304538;57;21077;-63
2022/03/21 04:36:14;;;;;;;9.63;4.82;;;7.90;40.60;;;;;;2325675;54;21712;-64
2022/03/21 04:39:04;;;;;;;7.97;4.50;;;7.80;40.60;;;;;;2351752;54;21104;-65
2022/03/21 04:41:30;;;;;;;7.68;4.43;;;7.80;41.10;;;;;;2302311;54;21108;-65
2022/03/21 04:43:58;;;;;;;7.18;4.28;;;7.80;40.80;;;;;;2309444;54;20981;-63
2022/03/21 04:46:44;;;;;;;7.35;4.22;;;7.70;40.90;;;;;;2310626;55;20997;-63
2022/03/21 04:49:10;;;;;;;8.25;4.72;;;7.70;41.00;;;;;;2338428;54;20991;-63
2022/03/21 04:51:36;;;;;;;7.05;4.22;;;7.70;41.00;;;;;;2365883;54;21017;-65
2022/03/21 04:54:12;;;;;;;9.52;4.65;;;7.70;41.10;;;;;;2300795;55;20941;-64
2022/03/21 04:56:39;;;;;;;8.05;4.30;;;7.60;41.30;;;;;;2428233;54;21022;-63
2022/03/21 04:59:07;;;;;;;8.00;4.65;;;7.60;41.10;;;;;;2285807;55;20997;-65
2022/03/21 05:05:15;;;;;;;7.78;4.25;;;7.60;41.70;;;;;;2304853;56;20989;-65
2022/03/21 05:07:42;;;;;;;7.30;4.03;;;7.50;41.20;;;;;;2303890;55;21438;-64
2022/03/21 05:10:17;;;;;;;8.23;4.25;;;7.50;41.30;;;;;;2306844;56;21177;-66
2022/03/21 05:12:43;;;;;;;7.65;4.37;;;7.50;41.50;;;;;;2302982;56;21057;-63
2022/03/21 05:15:10;;;;;;;8.52;4.72;;;7.40;41.40;;;;;;2304384;56;20980;-62
2022/03/21 05:21:17;;;;;;;7.22;3.97;;;7.40;41.90;;;;;;2312040;54;21112;-64
2022/03/21 05:32:41;;;;;;;6.70;3.70;;;7.30;41.60;;;;;;2335806;54;20972;-66
2022/03/21 05:38:29;;;;;;;7.43;3.87;;;7.30;42.10;;;;;;2305938;55;20963;-65
2022/03/21 05:41:00;;;;;;;7.43;4.30;;;7.30;42.40;;;;;;2303224;55;21013;-62
2022/03/21 05:43:32;;;;;;;8.57;4.90;;;7.30;42.20;;;;;;2305346;55;21577;-63
2022/03/21 05:46:03;;;;;;;8.48;5.00;;;7.30;42.40;;;;;;2299862;55;21015;-63
2022/03/21 05:48:51;;;;;;;8.18;4.93;;;7.30;42.40;;;;;;2273098;55;21046;-65
2022/03/21 05:51:22;;;;;;;8.20;4.35;;;7.40;42.60;;;;;;2281709;56;21618;-62
2022/03/21 05:53:49;;;;;;;8.02;4.60;;;7.40;42.70;;;;;;2276045;55;20954;-64
2022/03/21 05:56:16;;;;;;;7.12;4.10;;;7.40;42.70;;;;;;2295046;55;21010;-65
2022/03/21 05:58:43;;;;;;;8.20;4.93;;;7.40;42.70;;;;;;2297306;55;20961;-64
2022/03/21 06:01:12;;;;;;;8.93;4.60;;;7.50;42.80;;;;;;2339892;54;20957;-64
2022/03/21 06:03:40;;;;;;;7.62;4.60;;;7.50;42.90;;;;;;2303684;56;21068;-63
2022/03/21 06:06:06;;;;;;;9.25;5.53;;;7.50;43.00;;;;;;2304775;55;20985;-64
2022/03/21 06:08:33;;;;;;;8.68;4.90;;;7.60;43.10;;;;;;2330010;54;20946;-63
2022/03/21 06:11:07;;;;;;;8.43;4.68;;;7.60;43.30;;;;;;2298686;55;20985;-63
2022/03/21 06:13:35;;;;;;;9.77;5.05;;;7.70;43.40;;;;;;2304666;56;21025;-65
2022/03/21 06:16:05;;;;;;;9.43;5.32;;;7.70;43.50;;;;;;2316782;54;20970;-63
2022/03/21 06:18:35;;;;;;;9.10;4.80;;;7.80;43.60;;;;;;2289061;55;21105;-65
2022/03/21 06:21:03;;;;;;;9.88;5.65;;;7.90;43.80;;;;;;2277083;55;21011;-64
2022/03/21 06:23:30;;;;;;;9.00;5.53;;;8.00;43.90;;;;;;2348841;54;20962;-64
2022/03/21 06:25:58;;;;;;;10.05;5.85;;;8.10;44.00;;;;;;2305595;56;20997;-65
2022/03/21 06:28:25;;;;;;;11.48;5.30;;;8.10;44.10;;;;;;2293064;55;21510;-66
2022/03/21 06:30:53;;;;;;;8.80;5.12;;;8.30;44.30;;;;;;2304025;55;21021;-64
2022/03/21 06:33:25;;;;;;;8.60;4.78;;;8.30;44.20;;;;;;2305130;55;21463;-66
2022/03/21 06:35:52;;;;;;;7.97;5.22;;;8.40;44.30;;;;;;2306270;55;20989;-65
2022/03/21 06:38:19;;;;;;;7.97;4.80;;;8.50;44.40;;;;;;2303913;54;20990;-65
2022/03/21 06:40:46;;;;;;;9.20;5.35;;;8.70;45.10;;;;;;2348984;53;20977;-62
2022/03/21 06:43:12;;;;;;;7.82;4.55;;;8.80;44.50;;;;;;2305353;55;21459;-65
2022/03/21 06:45:42;;;;;;;10.15;5.00;;;8.80;44.40;;;;;;2306012;55;20978;-64
2022/03/21 06:48:09;;;;;;;9.30;5.18;;;8.90;44.40;;;;;;2307514;55;21076;-66
2022/03/21 06:50:38;;;;;;;8.57;4.68;;;9.00;44.20;;;;;;2303189;56;21490;-63
2022/03/21 06:53:05;;;;;;;8.15;5.07;;;9.10;44.20;;;;;;2290826;55;21104;-63
2022/03/21 06:55:34;;;;;;;10.10;4.87;;;9.10;44.10;;;;;;2340865;54;21112;-64
2022/03/21 06:58:03;;;;;;;7.87;4.62;;;9.20;44.20;;;;;;2291564;55;20974;-63
2022/03/21 07:00:30;;;;;;;8.38;4.80;;;9.30;44.30;;;;;;2298562;55;20985;-63
2022/03/21 07:02:59;;;;;;;10.77;5.53;;;9.40;44.40;;;;;;2299329;55;21110;-64
2022/03/21 07:05:28;;;;;;;8.85;5.62;;;9.50;44.50;;;;;;2329498;55;20957;-65
2022/03/21 07:07:58;;;;;;;8.50;5.07;;;9.60;44.60;;;;;;2293400;55;21082;-64
2022/03/21 07:10:25;;;;;;;9.23;5.62;;;9.70;44.60;;;;;;2288344;55;20984;-63
2022/03/21 07:12:52;;;;;;;9.63;6.00;;;9.70;44.60;;;;;;2305667;56;21558;-64
2022/03/21 07:15:24;;;;;;;;;;;9.90;44.60;;;;;;2307623;54;20968;-64
2022/03/21 07:17:54;;;;;;;8.18;4.40;;;10.00;44.10;;;;;;2329006;54;20068;-65
2022/03/21 07:20:21;;;;;;;9.93;5.15;;;10.10;43.60;;;;;;2280902;55;21016;-64
2022/03/21 07:22:55;;;;;;;8.60;5.18;;;10.20;43.60;;;;;;2308606;56;21029;-65
2022/03/21 07:25:28;;;;;;;7.80;5.03;;;10.20;43.60;;;;;;2306565;55;21037;-65
2022/03/21 07:27:55;;;;;;;6.85;4.68;;;10.40;43.70;;;;;;2337061;53;21454;-66
2022/03/21 07:30:29;;;;;;;10.35;5.80;;;10.40;43.80;;;;;;2305959;55;20957;-65
2022/03/21 07:32:57;;;;;;;10.82;6.22;;;10.60;44.00;;;;;;2327294;54;21073;-66
2022/03/21 07:35:24;;;;;;;10.90;6.80;;;10.70;44.10;;;;;;2282831;55;20950;-65
2022/03/21 07:37:53;;;;;;;9.65;5.72;;;10.80;44.10;;;;;;2307843;56;21318;-64
2022/03/21 07:40:23;;;;;;;11.50;6.33;;;11.00;44.30;;;;;;2299718;55;21800;-64
2022/03/21 07:42:55;;;;;;;9.73;5.03;;;11.10;44.30;;;;;;2277399;55;20969;-64
2022/03/21 07:49:23;;;;;;;;;;;;;;;;;;;;;
2022/03/21 07:51:50;;;;;;;9.05;6.37;;;11.60;44.50;;;;;;2328447;54;21116;-64
2022/03/21 07:54:21;;;;;;;11.93;7.12;;;11.70;44.40;;;;;;2303661;55;20982;-65
2022/03/21 07:56:55;;;;;;;11.50;6.85;;;11.90;44.30;;;;;;2262999;55;21073;-65
2022/03/21 07:59:22;;;;;;;12.48;6.80;;;12.00;44.30;;;;;;2302269;55;21781;-65
2022/03/21 08:01:49;;;;;;;11.43;7.05;;;12.20;44.30;;;;;;2263274;55;20966;-66
2022/03/21 08:04:19;;;;;;;12.25;6.75;;;12.30;44.20;;;;;;2282606;56;21002;-65
2022/03/21 08:06:48;;;;;;;10.77;6.87;;;12.50;44.20;;;;;;2283772;55;20982;-64
2022/03/21 08:09:15;;;;;;;9.10;6.18;;;12.70;44.20;;;;;;2284114;55;21042;-65
2022/03/21 08:11:41;;;;;;;11.05;7.05;;;12.80;44.20;;;;;;2282857;55;20938;-66
2022/03/21 08:14:08;;;;;;;10.13;6.65;;;13.00;44.40;;;;;;2268303;55;21124;-65
2022/03/21 08:16:40;;;;;;;12.25;7.50;;;13.20;44.40;;;;;;2271131;55;21024;-65
2022/03/21 08:19:07;;;;;;;10.52;7.35;;;13.40;44.40;;;;;;2282190;55;20995;-65
2022/03/21 08:21:34;;;;;;;9.73;6.37;;;13.60;44.50;;;;;;2272066;55;20981;-66
2022/03/21 08:24:03;;;;;;;9.43;6.20;;;13.80;44.70;;;;;;2294906;56;21004;-64
2022/03/21 08:26:43;;;;;;;9.30;6.15;;;14.10;44.80;;;;;;2305876;56;21033;-64
2022/03/21 08:29:16;;;;;;;9.65;5.53;;;14.40;45.00;;;;;;2305584;55;20977;-64
2022/03/21 08:38:08;;;;;;;11.10;6.30;;;14.60;45.00;;;;;;2305931;55;20961;-65
2022/03/21 08:41:59;;;;;;;7.60;4.78;;;14.90;44.90;;;;;;2306281;56;20993;-65
2022/03/21 08:44:26;;;;;;;8.30;5.07;;;15.90;44.90;;;;;;2305556;55;21178;-65
2022/03/21 08:46:53;;;;;;;9.10;5.80;;;16.30;45.00;;;;;;2295111;55;21033;-65
2022/03/21 08:49:23;;;;;;;8.80;5.28;;;16.60;45.10;;;;;;2304241;55;20964;-65
2022/03/21 08:52:01;;;;;;;11.02;6.03;;;17.00;45.40;;;;;;2270505;56;20972;-65
2022/03/21 08:54:31;;;;;;;10.10;6.35;;;17.40;45.40;;;;;;2307898;55;20984;-66
2022/03/21 08:57:10;;;;;;;;;;;;;;;;;;;;;
2022/03/21 08:59:42;;;;;;;7.78;5.30;;;18.20;45.50;;;;;;2329453;53;20975;-66
2022/03/21 09:02:09;;;;;;;7.37;5.18;;;18.60;45.20;;;;;;2281900;55;21517;-66
2022/03/21 09:04:39;;;;;;;8.45;5.25;;;19.00;44.70;;;;;;2301540;55;20974;-65
2022/03/21 09:08:42;;;;;;;7.47;5.37;;;19.30;44.10;;;;;;2289884;55;21038;-65
2022/03/21 09:11:09;;;;;;;9.83;5.27;;;19.70;43.90;;;;;;2315685;54;21036;-67
2022/03/21 09:13:36;;;;;;;7.62;5.20;;;20.10;43.60;;;;;;2305625;56;21445;-66
2022/03/21 09:16:02;;;;;;;8.00;5.35;;;20.40;43.50;;;;;;2343691;54;21045;-66
2022/03/21 09:18:31;;;;;;;7.22;5.12;;;20.70;43.20;;;;;;2254497;55;21019;-65
2022/03/21 09:21:01;;;;;;;7.25;5.22;;;20.90;42.70;;;;;;2301514;55;21684;-65
2022/03/21 09:23:27;;;;;;;7.90;5.10;;;21.20;42.40;;;;;;2270690;55;21037;-66
2022/03/21 09:25:55;;;;;;;8.57;5.12;;;21.40;42.10;;;;;;2289603;55;21012;-67
2022/03/21 09:28:22;;;;;;;7.40;5.12;;;21.50;41.50;;;;;;2313756;55;20985;-66
2022/03/21 09:30:48;;;;;;;7.65;5.20;;;21.70;41.20;;;;;;2282439;56;20975;-67
2022/03/21 09:33:17;;;;;;;8.32;4.62;;;21.80;41.00;;;;;;2288823;55;20957;-65
2022/03/21 09:35:53;;;;;;;7.45;4.82;;;22.00;40.90;;;;;;2307745;55;20984;-65
2022/03/21 09:38:19;;;;;;;10.73;5.43;;;22.10;40.50;;;;;;2302346;56;20977;-66
2022/03/21 09:40:46;;;;;;;7.12;5.10;;;22.30;40.10;;;;;;2287827;55;21021;-65
2022/03/21 09:43:12;;;;;;;8.65;5.35;;;22.40;39.80;;;;;;2301982;56;20981;-66
2022/03/21 09:45:39;;;;;;;7.20;5.12;;;22.60;39.60;;;;;;2305774;56;20961;-66
2022/03/21 09:48:12;;;;;;;7.95;5.05;;;22.60;38.80;;;;;;2341492;54;21445;-66
2022/03/21 09:50:42;;;;;;;7.32;5.22;;;22.70;38.60;;;;;;2305983;55;21558;-66
2022/03/21 09:53:10;;;;;;;7.72;4.70;;;22.70;38.60;;;;;;2305728;55;21875;-65
2022/03/21 09:55:37;;;;;;;7.62;5.07;;;22.80;38.50;;;;;;2355525;54;20941;-66
2022/03/21 09:58:04;;;;;;;8.27;4.87;;;22.80;38.40;;;;;;2327084;54;21021;-66
2022/03/21 10:00:32;;;;;;;8.48;4.62;;;22.90;38.30;;;;;;2305521;56;20973;-65
2022/03/21 10:02:58;;;;;;;6.22;3.97;;;23.00;38.10;;;;;;2283411;55;20992;-66
2022/03/21 10:05:36;;;;;;;10.80;4.57;;;23.00;38.00;;;;;;2305376;55;21028;-67
2022/03/21 10:10:40;;;;;;;7.32;4.62;;;23.10;37.40;;;;;;2289230;54;21038;-66
2022/03/21 10:13:09;;;;;;;8.57;4.50;;;23.20;37.60;;;;;;2381248;54;21813;-67
2022/03/21 10:15:36;;;;;;;10.05;5.10;;;23.20;37.40;;;;;;2305791;56;21032;-67
2022/03/21 10:18:09;;;;;;;7.47;4.45;;;23.10;37.00;;;;;;2284481;55;21022;-66
2022/03/21 10:20:39;;;;;;;7.45;4.87;;;23.10;36.80;;;;;;2296555;55;21957;-66
2022/03/21 10:23:22;;;;;;;7.70;4.90;;;23.10;36.60;;;;;;2282517;55;21420;-67
2022/03/21 10:25:50;;;;;;;9.85;5.60;;;23.10;36.10;;;;;;2337901;54;20961;-67
2022/03/21 10:28:33;;;;;;;9.18;6.07;;;23.00;36.30;;;;;;2338805;54;20961;-67
2022/03/21 10:31:01;;;;;;;8.05;5.57;;;22.90;35.80;;;;;;2299048;55;21005;-66
2022/03/21 10:33:30;;;;;;;7.05;5.03;;;22.90;36.00;;;;;;2281770;55;21033;-66
2022/03/21 10:36:02;;;;;;;9.30;4.85;;;22.90;36.20;;;;;;2305563;56;21705;-67
2022/03/21 10:38:35;;;;;;;7.07;4.50;;;22.80;36.10;;;;;;2305745;55;110802;-66
2022/03/21 10:41:34;;;;;;;7.12;4.47;;;22.90;36.30;;;;;;2250460;56;21062;-66
2022/03/21 10:44:01;;;;;;;8.80;4.87;;;22.90;36.20;;;;;;2220363;56;21002;-67
2022/03/21 10:46:34;;;;;;;7.93;5.55;;;22.90;36.20;;;;;;2240018;57;21048;-67
2022/03/21 10:49:10;;;;;;;8.35;5.18;;;22.90;36.00;;;;;;2281535;56;21041;-67
2022/03/21 10:51:49;;;;;;;10.73;5.07;;;22.90;35.40;;;;;;2257820;56;21065;-66
2022/03/21 10:54:35;;;;;;;8.63;5.03;;;22.90;35.10;;;;;;2269950;56;20981;-66
2022/03/21 10:57:03;;;;;;;6.97;4.78;;;22.90;35.10;;;;;;2256259;56;21759;-67
2022/03/21 10:59:32;;;;;;;9.25;5.03;;;22.80;35.40;;;;;;2254262;55;20974;-66
2022/03/21 11:02:17;;;;;;;8.73;5.47;;;22.80;35.30;;;;;;2265272;55;21398;-67
2022/03/21 11:04:44;;;;;;;7.40;5.25;;;22.70;34.90;;;;;;2256931;56;20992;-66
2022/03/21 11:07:12;;;;;;;7.82;5.30;;;22.70;35.10;;;;;;2257266;57;21104;-66
2022/03/21 11:09:41;;;;;;;7.12;4.93;;;22.70;35.00;;;;;;2277925;55;21075;-67
2022/03/21 11:12:13;;;;;;;7.03;4.60;;;22.70;34.90;;;;;;2258252;56;21017;-66
2022/03/21 11:14:41;;;;;;;7.72;4.57;;;22.60;34.70;;;;;;2257611;57;20965;-66
2022/03/21 11:17:07;;;;;;;7.12;4.57;;;22.60;34.80;;;;;;2260171;55;21024;-66
2022/03/21 11:19:35;;;;;;;7.28;4.97;;;22.60;34.70;;;;;;2261350;55;21013;-66
2022/03/21 11:22:02;;;;;;;6.80;4.20;;;22.60;34.60;;;;;;2257155;55;21060;-66
2022/03/21 11:24:34;;;;;;;8.65;5.15;;;22.60;34.70;;;;;;2257920;56;21786;-66
2022/03/21 11:30:11;;;;;;;7.43;5.32;;;22.60;34.50;;;;;;2372693;55;21052;-67
2022/03/21 11:34:48;;;;;;;7.85;4.47;;;22.60;34.70;;;;;;2258004;56;22077;-67
2022/03/21 11:37:29;;;;;;;8.73;4.37;;;22.70;34.80;;;;;;2281001;55;21047;-66
2022/03/21 11:40:29;;;;;;;8.80;4.68;;;22.60;34.40;;;;;;2246142;56;20962;-66
2022/03/21 11:43:19;;;;;;;7.78;4.87;;;22.70;34.40;;;;;;2253034;56;20965;-67
2022/03/21 11:45:50;;;;;;;7.50;5.12;;;22.70;34.70;;;;;;2257785;56;20949;-66
2022/03/21 11:48:35;;;;;;;8.45;4.32;;;22.70;34.30;;;;;;2257811;55;21413;-66
2022/03/21 11:51:22;;;;;;;8.25;4.57;;;22.70;34.20;;;;;;2265696;55;20969;-66
2022/03/21 11:53:50;;;;;;;6.87;4.43;;;22.70;33.70;;;;;;2252799;56;20948;-66
2022/03/21 11:56:18;;;;;;;7.03;4.53;;;22.70;34.00;;;;;;2259652;55;20984;-66
2022/03/21 11:58:45;;;;;;;6.62;4.18;;;22.80;33.90;;;;;;2262118;56;20937;-67
2022/03/21 12:01:28;;;;;;;5.72;4.07;;;22.80;33.60;;;;;;2257079;57;21019;-67
2022/03/21 12:03:58;;;;;;;8.43;4.45;;;22.80;32.70;;;;;;2316780;55;21009;-66
2022/03/21 12:06:34;;;;;;;8.00;4.82;;;22.70;32.80;;;;;;2286861;55;20965;-66
2022/03/21 12:09:10;;;;;;;7.65;4.30;;;22.70;32.50;;;;;;2254891;56;21091;-67
2022/03/21 12:12:00;;;;;;;5.68;3.90;;;22.70;32.30;;;;;;2280830;56;20961;-67
2022/03/21 12:14:31;;;;;;;11.12;4.40;;;22.70;32.60;;;;;;2257323;56;21017;-66
2022/03/21 12:17:47;;;;;;;8.13;4.62;;;22.70;33.00;;;;;;2256308;56;20944;-67
2022/03/21 12:20:15;;;;;;;9.55;5.12;;;22.70;32.90;;;;;;2257104;56;21116;-66
2022/03/21 12:23:00;;;;;;;6.72;4.35;;;22.70;32.90;;;;;;2272262;55;20970;-66
2022/03/21 12:25:46;;;;;;;8.40;4.03;;;22.70;33.00;;;;;;2253246;55;22015;-66
2022/03/21 12:29:31;;;;;;;8.02;4.68;;;22.80;32.80;;;;;;2255907;55;21061;-66
2022/03/21 12:32:26;;;;;;;8.88;4.75;;;22.80;32.50;;;;;;2237375;56;21091;-67
2022/03/21 12:34:53;;;;;;;9.25;4.65;;;22.90;32.70;;;;;;2346829;55;21473;-66
2022/03/21 12:39:18;;;;;;;6.97;3.87;;;22.90;32.90;;;;;;2256634;56;21048;-67
2022/03/21 12:41:45;;;;;;;7.80;4.18;;;23.00;33.20;;;;;;2256280;56;21369;-66
2022/03/21 12:44:14;;;;;;;8.45;4.32;;;23.00;32.90;;;;;;2257298;57;21016;-66
2022/03/21 12:46:43;;;;;;;8.13;4.72;;;23.10;32.80;;;;;;2257564;57;20960;-68
2022/03/21 12:49:10;;;;;;;7.28;4.15;;;23.10;33.00;;;;;;2256792;56;20968;-66
2022/03/21 12:51:37;;;;;;;7.18;4.60;;;23.20;33.10;;;;;;2257424;56;20981;-67
2022/03/21 12:54:24;;;;;;;7.45;4.30;;;23.30;33.10;;;;;;2258199;56;20984;-66
2022/03/21 12:57:06;;;;;;;8.77;4.93;;;23.30;33.00;;;;;;2258927;56;21039;-66
2022/03/21 12:59:36;;;;;;;7.25;4.47;;;23.50;32.80;;;;;;2260335;56;20996;-66
2022/03/21 13:02:04;;;;;;;7.17;4.77;;;23.50;32.90;;;;;;2258141;56;20957;-67
2022/03/21 13:12:56;;;;;;;7.05;4.72;;;23.70;32.30;;;;;;2253830;56;21040;-66
2022/03/21 13:15:23;;;;;;;8.32;5.12;;;23.60;32.20;;;;;;2256092;56;21636;-66
2022/03/21 13:18:03;;;;;;;8.20;5.32;;;23.60;32.10;;;;;;2241024;56;21328;-66
2022/03/21 13:20:40;;;;;;;9.25;5.47;;;23.60;31.80;;;;;;2253920;56;21434;-66
2022/03/21 13:23:07;;;;;;;10.68;5.90;;;23.60;31.50;;;;;;2352656;55;20980;-67
2022/03/21 13:25:36;;;;;;;8.52;5.40;;;23.50;31.60;;;;;;2257972;56;20964;-67
2022/03/21 13:28:38;;;;;;;8.50;5.18;;;23.40;31.60;;;;;;2296766;55;21041;-66
2022/03/21 13:31:09;;;;;;;10.07;5.50;;;23.40;31.70;;;;;;2256769;55;21469;-68
2022/03/21 13:33:38;;;;;;;8.52;5.18;;;23.40;31.70;;;;;;2215547;56;20966;-67
2022/03/21 13:36:14;;;;;;;7.45;4.90;;;23.30;31.70;;;;;;2281158;55;20977;-66
2022/03/21 13:38:41;;;;;;;9.77;5.25;;;23.30;31.90;;;;;;2257094;56;21037;-65
2022/03/21 13:41:17;;;;;;;7.65;4.70;;;23.30;32.00;;;;;;2226532;56;21009;-68
2022/03/21 13:44:05;;;;;;;7.53;4.47;;;23.30;31.90;;;;;;2246008;56;21017;-66
2022/03/21 13:46:31;;;;;;;9.52;5.22;;;23.30;32.10;;;;;;2271916;55;20973;-68
2022/03/21 13:48:58;;;;;;;8.68;5.10;;;23.40;32.20;;;;;;2256150;56;20977;-68
2022/03/21 13:51:25;;;;;;;8.70;5.37;;;23.50;32.10;;;;;;2255291;55;21023;-66
2022/03/21 13:54:12;;;;;;;7.75;4.97;;;23.50;32.00;;;;;;2286659;56;21052;-67
2022/03/21 13:56:38;;;;;;;9.15;5.43;;;23.60;31.80;;;;;;2256872;55;20945;-68
2022/03/21 13:59:17;;;;;;;9.40;5.95;;;23.50;31.50;;;;;;2257091;56;21080;-66
2022/03/21 14:01:46;;;;;;;8.77;5.60;;;23.50;31.00;;;;;;2258762;56;21751;-66
2022/03/21 14:04:25;;;;;;;9.05;5.20;;;23.50;31.30;;;;;;2323449;55;21026;-66
2022/03/21 14:07:05;;;;;;;9.68;5.78;;;23.40;31.00;;;;;;2278358;55;2828565;-68
2022/03/21 14:09:35;;;;;;;8.98;5.57;;;23.40;31.00;;;;;;2285360;56;21070;-65
2022/03/21 14:12:10;;;;;;;9.82;6.22;;;23.30;31.00;;;;;;2282710;56;21030;-67
2022/03/21 14:14:37;;;;;;;10.73;6.22;;;23.30;30.80;;;;;;2283131;56;21547;-68
2022/03/21 14:17:04;;;;;;;9.05;5.85;;;23.20;30.80;;;;;;2282270;56;21006;-66